sensor_id;sensor_type;location;lat;lon;timestamp;pressure;altitude;pressure_sealevel;temperature;humidity
75767;BME280;64378;55.596;13.014;2023-03-26T00:01:25;99587.09;;;21.03;39.13
75767;BME280;64378;55.596;13.014;2023-03-26T00:03:52;99591.75;;;21.03;39.14
75767;BME280;64378;55.596;13.014;2023-03-26T00:06:33;99592.06;;;21.01;39.24
75767;BME280;64378;55.596;13.014;2023-03-26T00:09:01;99594.81;;;21.01;39.14
75767;BME280;64378;55.596;13.014;2023-03-26T00:11:27;99588.00;;;20.99;39.09
75767;BME280;64378;55.596;13.014;2023-03-26T00:13:54;99592.91;;;21.02;39.03
75767;BME280;64378;55.596;13.014;2023-03-26T00:16:22;99587.16;;;20.98;39.14
75767;BME280;64378;55.596;13.014;2023-03-26T00:18:48;99595.13;;;21.00;39.11
75767;BME280;64378;55.596;13.014;2023-03-26T00:21:18;99593.19;;;21.00;39.01
75767;BME280;64378;55.596;13.014;2023-03-26T00:23:44;99600.59;;;21.00;39.16
75767;BME280;64378;55.596;13.014;2023-03-26T00:26:11;99593.19;;;21.00;39.36
75767;BME280;64378;55.596;13.014;2023-03-26T00:28:38;99604.16;;;21.00;39.15
75767;BME280;64378;55.596;13.014;2023-03-26T00:31:06;99604.16;;;21.00;39.10
75767;BME280;64378;55.596;13.014;2023-03-26T00:33:32;99604.16;;;21.00;39.27
75767;BME280;64378;55.596;13.014;2023-03-26T00:36:04;99600.28;;;21.01;39.29
75767;BME280;64378;55.596;13.014;2023-03-26T00:38:30;99606.88;;;21.00;39.33
75767;BME280;64378;55.596;13.014;2023-03-26T00:40:58;99601.41;;;21.00;39.26
75767;BME280;64378;55.596;13.014;2023-03-26T00:43:31;99606.88;;;21.00;39.52
75767;BME280;64378;55.596;13.014;2023-03-26T00:45:57;99604.16;;;21.00;39.48
75767;BME280;64378;55.596;13.014;2023-03-26T00:48:23;99600.59;;;21.00;39.34
75767;BME280;64378;55.596;13.014;2023-03-26T00:50:50;99603.34;;;21.00;39.36
75767;BME280;64378;55.596;13.014;2023-03-26T00:53:16;99607.19;;;20.99;39.12
75767;BME280;64378;55.596;13.014;2023-03-26T00:55:43;99604.47;;;20.99;39.36
75767;BME280;64378;55.596;13.014;2023-03-26T00:58:10;99609.94;;;20.99;39.19
75767;BME280;64378;55.596;13.014;2023-03-26T01:00:43;99608.00;;;20.99;39.35
75767;BME280;64378;55.596;13.014;2023-03-26T01:03:12;99604.72;;;20.97;39.26
75767;BME280;64378;55.596;13.014;2023-03-26T01:08:17;99606.38;;;20.98;39.66
75767;BME280;64378;55.596;13.014;2023-03-26T01:10:45;99597.34;;;20.98;39.59
75767;BME280;64378;55.596;13.014;2023-03-26T01:13:22;99601.19;;;20.97;39.65
75767;BME280;64378;55.596;13.014;2023-03-26T01:15:52;99613.47;;;20.99;39.54
75767;BME280;64378;55.596;13.014;2023-03-26T01:18:20;99604.72;;;20.97;39.61
75767;BME280;64378;55.596;13.014;2023-03-26T01:20:48;99612.69;;;20.99;39.52
75767;BME280;64378;55.596;13.014;2023-03-26T01:23:21;99609.09;;;20.98;39.59
75767;BME280;64378;55.596;13.014;2023-03-26T01:25:57;99610.75;;;20.99;39.62
75767;BME280;64378;55.596;13.014;2023-03-26T01:28:28;99611.56;;;21.00;39.65
75767;BME280;64378;55.596;13.014;2023-03-26T01:31:05;99610.75;;;20.99;39.44
75767;BME280;64378;55.596;13.014;2023-03-26T01:33:36;99611.56;;;21.00;39.49
75767;BME280;64378;55.596;13.014;2023-03-26T01:36:16;99611.84;;;20.98;39.52
75767;BME280;64378;55.596;13.014;2023-03-26T01:38:50;99616.22;;;20.99;39.74
75767;BME280;64378;55.596;13.014;2023-03-26T01:41:29;99612.69;;;20.99;39.55
75767;BME280;64378;55.596;13.014;2023-03-26T01:44:06;99613.47;;;20.99;39.47
75767;BME280;64378;55.596;13.014;2023-03-26T01:46:35;99609.41;;;20.97;39.45
75767;BME280;64378;55.596;13.014;2023-03-26T01:49:03;99611.56;;;21.00;39.58
75767;BME280;64378;55.596;13.014;2023-03-26T01:51:32;99616.75;;;21.01;39.72
75767;BME280;64378;55.596;13.014;2023-03-26T01:54:00;99614.31;;;21.00;39.75
75767;BME280;64378;55.596;13.014;2023-03-26T02:04:32;99614.31;;;21.00;39.63
75767;BME280;64378;55.596;13.014;2023-03-26T02:07:06;99617.06;;;21.00;39.62
75767;BME280;64378;55.596;13.014;2023-03-26T02:09:41;99619.50;;;21.01;39.69
75767;BME280;64378;55.596;13.014;2023-03-26T02:12:10;99622.22;;;21.01;39.67
75767;BME280;64378;55.596;13.014;2023-03-26T02:14:37;99619.50;;;21.01;39.47
75767;BME280;64378;55.596;13.014;2023-03-26T02:17:03;99619.50;;;21.01;39.47
75767;BME280;64378;55.596;13.014;2023-03-26T02:19:29;99623.34;;;21.00;39.60
75767;BME280;64378;55.596;13.014;2023-03-26T02:21:54;99623.34;;;21.00;39.45
75767;BME280;64378;55.596;13.014;2023-03-26T02:24:24;99628.03;;;21.00;39.60
75767;BME280;64378;55.596;13.014;2023-03-26T02:26:50;99625.28;;;21.00;39.63
75767;BME280;64378;55.596;13.014;2023-03-26T02:29:15;99615.44;;;20.99;39.73
75767;BME280;64378;55.596;13.014;2023-03-26T02:31:45;99620.06;;;20.98;39.56
75767;BME280;64378;55.596;13.014;2023-03-26T02:34:13;99631.88;;;20.99;39.83
75767;BME280;64378;55.596;13.014;2023-03-26T02:36:39;99628.31;;;20.98;39.73
75767;BME280;64378;55.596;13.014;2023-03-26T02:39:08;99625.56;;;20.98;39.81
75767;BME280;64378;55.596;13.014;2023-03-26T02:41:36;99625.56;;;20.98;39.74
75767;BME280;64378;55.596;13.014;2023-03-26T02:44:02;99627.50;;;20.98;39.86
75767;BME280;64378;55.596;13.014;2023-03-26T02:46:28;99629.13;;;20.99;39.97
75767;BME280;64378;55.596;13.014;2023-03-26T02:48:54;99629.94;;;20.99;39.73
75767;BME280;64378;55.596;13.014;2023-03-26T02:51:19;99629.94;;;20.99;39.88
75767;BME280;64378;55.596;13.014;2023-03-26T02:53:45;99633.50;;;21.00;39.92
75767;BME280;64378;55.596;13.014;2023-03-26T02:56:11;99634.63;;;20.99;39.79
75767;BME280;64378;55.596;13.014;2023-03-26T02:58:37;99631.88;;;20.99;40.01
75767;BME280;64378;55.596;13.014;2023-03-26T03:01:02;99637.38;;;20.99;39.83
75767;BME280;64378;55.596;13.014;2023-03-26T03:03:29;99635.41;;;20.99;39.74
75767;BME280;64378;55.596;13.014;2023-03-26T03:05:55;99633.78;;;20.98;39.83
75767;BME280;64378;55.596;13.014;2023-03-26T03:08:23;99633.78;;;20.98;39.67
75767;BME280;64378;55.596;13.014;2023-03-26T03:10:59;99640.91;;;20.99;39.90
75767;BME280;64378;55.596;13.014;2023-03-26T03:13:26;99643.97;;;20.98;40.03
75767;BME280;64378;55.596;13.014;2023-03-26T03:15:51;99641.22;;;20.98;40.01
75767;BME280;64378;55.596;13.014;2023-03-26T03:18:17;99653.00;;;20.98;39.87
75767;BME280;64378;55.596;13.014;2023-03-26T03:20:42;99651.88;;;20.99;39.66
75767;BME280;64378;55.596;13.014;2023-03-26T03:23:09;99653.81;;;20.99;39.91
75767;BME280;64378;55.596;13.014;2023-03-26T03:25:34;99655.44;;;21.00;40.06
75767;BME280;64378;55.596;13.014;2023-03-26T03:28:00;99662.03;;;20.99;39.89
75767;BME280;64378;55.596;13.014;2023-03-26T03:30:26;99654.63;;;20.99;40.08
75767;BME280;64378;55.596;13.014;2023-03-26T03:32:51;99658.78;;;20.97;39.84
75767;BME280;64378;55.596;13.014;2023-03-26T03:35:17;99660.09;;;20.99;40.09
75767;BME280;64378;55.596;13.014;2023-03-26T03:37:42;99662.03;;;20.99;39.99
75767;BME280;64378;55.596;13.014;2023-03-26T03:40:08;99659.31;;;20.99;40.08
75767;BME280;64378;55.596;13.014;2023-03-26T03:42:35;99660.09;;;20.99;39.96
75767;BME280;64378;55.596;13.014;2023-03-26T03:45:01;99660.09;;;20.99;39.80
75767;BME280;64378;55.596;13.014;2023-03-26T03:47:26;99663.69;;;21.00;39.74
75767;BME280;64378;55.596;13.014;2023-03-26T03:49:52;99666.41;;;21.00;39.69
75767;BME280;64378;55.596;13.014;2023-03-26T03:52:18;99671.91;;;21.00;39.85
75767;BME280;64378;55.596;13.014;2023-03-26T03:54:43;99677.06;;;21.01;39.68
75767;BME280;64378;55.596;13.014;2023-03-26T03:57:08;99677.91;;;21.02;39.90
75767;BME280;64378;55.596;13.014;2023-03-26T03:59:34;99682.56;;;21.01;39.65
75767;BME280;64378;55.596;13.014;2023-03-26T04:01:59;99689.16;;;21.00;39.66
75767;BME280;64378;55.596;13.014;2023-03-26T04:04:25;99689.16;;;21.00;39.62
75767;BME280;64378;55.596;13.014;2023-03-26T04:06:50;99699.84;;;21.02;39.59
75767;BME280;64378;55.596;13.014;2023-03-26T04:09:17;99697.91;;;21.02;39.61
75767;BME280;64378;55.596;13.014;2023-03-26T04:11:42;99693.53;;;21.01;39.51
75767;BME280;64378;55.596;13.014;2023-03-26T04:14:07;99699.84;;;21.02;39.51
75767;BME280;64378;55.596;13.014;2023-03-26T04:16:34;99702.59;;;21.02;39.34
75767;BME280;64378;55.596;13.014;2023-03-26T04:19:00;99704.50;;;21.01;39.46
75767;BME280;64378;55.596;13.014;2023-03-26T04:21:27;99702.88;;;21.00;39.54
75767;BME280;64378;55.596;13.014;2023-03-26T04:23:54;99710.00;;;21.01;39.48
75767;BME280;64378;55.596;13.014;2023-03-26T04:26:20;99714.38;;;21.02;39.58
75767;BME280;64378;55.596;13.014;2023-03-26T04:28:54;99713.56;;;21.02;39.20
75767;BME280;64378;55.596;13.014;2023-03-26T04:31:22;99713.56;;;21.02;38.94
75767;BME280;64378;55.596;13.014;2023-03-26T04:33:50;99725.34;;;21.02;39.15
75767;BME280;64378;55.596;13.014;2023-03-26T04:36:18;99728.88;;;21.03;39.14
75767;BME280;64378;55.596;13.014;2023-03-26T04:38:46;99725.34;;;21.02;39.04
75767;BME280;64378;55.596;13.014;2023-03-26T04:41:16;99719.34;;;21.00;39.22
75767;BME280;64378;55.596;13.014;2023-03-26T04:43:41;99733.03;;;21.00;39.06
75767;BME280;64378;55.596;13.014;2023-03-26T04:46:15;99727.56;;;21.00;39.09
75767;BME280;64378;55.596;13.014;2023-03-26T04:48:43;99725.13;;;20.99;39.12
75767;BME280;64378;55.596;13.014;2023-03-26T04:51:11;99728.66;;;20.99;38.93
75767;BME280;64378;55.596;13.014;2023-03-26T04:53:44;99730.59;;;20.99;39.05
75767;BME280;64378;55.596;13.014;2023-03-26T04:56:35;99731.41;;;20.99;39.08
75767;BME280;64378;55.596;13.014;2023-03-26T04:59:03;99730.59;;;20.99;38.89
75767;BME280;64378;55.596;13.014;2023-03-26T05:01:29;99730.59;;;20.99;38.91
75767;BME280;64378;55.596;13.014;2023-03-26T05:03:58;99731.41;;;20.99;38.81
75767;BME280;64378;55.596;13.014;2023-03-26T05:06:27;99732.53;;;20.98;38.96
75767;BME280;64378;55.596;13.014;2023-03-26T05:08:53;99730.09;;;20.97;38.57
75767;BME280;64378;55.596;13.014;2023-03-26T05:11:19;99743.50;;;20.98;38.76
75767;BME280;64378;55.596;13.014;2023-03-26T05:13:45;99739.94;;;20.98;38.81
75767;BME280;64378;55.596;13.014;2023-03-26T05:16:11;99740.75;;;20.98;38.86
75767;BME280;64378;55.596;13.014;2023-03-26T05:18:37;99735.56;;;20.97;38.81
75767;BME280;64378;55.596;13.014;2023-03-26T05:21:03;99735.25;;;20.98;38.81
75767;BME280;64378;55.596;13.014;2023-03-26T05:23:29;99738.31;;;20.97;38.67
75767;BME280;64378;55.596;13.014;2023-03-26T05:25:54;99735.56;;;20.97;38.82
75767;BME280;64378;55.596;13.014;2023-03-26T05:28:20;99745.69;;;20.96;39.06
75767;BME280;64378;55.596;13.014;2023-03-26T05:30:50;99737.47;;;20.96;38.67
75767;BME280;64378;55.596;13.014;2023-03-26T05:33:17;99739.41;;;20.96;38.60
75767;BME280;64378;55.596;13.014;2023-03-26T05:35:43;99741.63;;;20.94;38.58
75767;BME280;64378;55.596;13.014;2023-03-26T05:38:08;99747.66;;;20.96;38.68
75767;BME280;64378;55.596;13.014;2023-03-26T05:40:34;99747.66;;;20.96;38.66
75767;BME280;64378;55.596;13.014;2023-03-26T05:43:00;99732.31;;;20.95;38.51
75767;BME280;64378;55.596;13.014;2023-03-26T05:45:25;99741.06;;;20.97;38.59
75767;BME280;64378;55.596;13.014;2023-03-26T05:47:51;99747.66;;;20.96;38.51
75767;BME280;64378;55.596;13.014;2023-03-26T05:50:19;99742.97;;;20.96;38.54
75767;BME280;64378;55.596;13.014;2023-03-26T05:52:44;99754.75;;;20.97;38.51
75767;BME280;64378;55.596;13.014;2023-03-26T05:55:10;99751.19;;;20.96;38.43
75767;BME280;64378;55.596;13.014;2023-03-26T05:57:35;99748.44;;;20.96;38.57
75767;BME280;64378;55.596;13.014;2023-03-26T06:00:02;99749.28;;;20.97;38.52
75767;BME280;64378;55.596;13.014;2023-03-26T06:02:29;99746.53;;;20.97;38.79
75767;BME280;64378;55.596;13.014;2023-03-26T06:04:54;99752.28;;;20.95;38.49
75767;BME280;64378;55.596;13.014;2023-03-26T06:07:21;99756.69;;;20.96;38.57
75767;BME280;64378;55.596;13.014;2023-03-26T06:09:47;99756.97;;;20.95;38.33
75767;BME280;64378;55.596;13.014;2023-03-26T06:12:13;99756.97;;;20.95;38.38
75767;BME280;64378;55.596;13.014;2023-03-26T06:14:39;99755.34;;;20.94;38.24
75767;BME280;64378;55.596;13.014;2023-03-26T06:17:07;99760.84;;;20.94;38.15
75767;BME280;64378;55.596;13.014;2023-03-26T06:19:33;99758.38;;;20.92;38.13
75767;BME280;64378;55.596;13.014;2023-03-26T06:21:58;99759.19;;;20.93;38.07
75767;BME280;64378;55.596;13.014;2023-03-26T06:24:24;99761.94;;;20.93;38.18
75767;BME280;64378;55.596;13.014;2023-03-26T06:26:49;99752.88;;;20.92;38.09
75767;BME280;64378;55.596;13.014;2023-03-26T06:29:16;99758.38;;;20.92;38.01
75767;BME280;64378;55.596;13.014;2023-03-26T06:31:41;99765.78;;;20.92;38.05
75767;BME280;64378;55.596;13.014;2023-03-26T06:34:07;99768.81;;;20.90;38.15
75767;BME280;64378;55.596;13.014;2023-03-26T06:36:32;99767.69;;;20.91;38.15
75767;BME280;64378;55.596;13.014;2023-03-26T06:38:58;99769.63;;;20.91;38.10
75767;BME280;64378;55.596;13.014;2023-03-26T06:41:23;99774.00;;;20.92;38.27
75767;BME280;64378;55.596;13.014;2023-03-26T06:43:49;99777.56;;;20.92;38.23
75767;BME280;64378;55.596;13.014;2023-03-26T06:46:15;99768.53;;;20.92;38.09
75767;BME280;64378;55.596;13.014;2023-03-26T06:48:41;99773.72;;;20.93;38.27
75767;BME280;64378;55.596;13.014;2023-03-26T06:51:07;99779.19;;;20.93;37.95
75767;BME280;64378;55.596;13.014;2023-03-26T06:53:33;99769.06;;;20.94;38.01
75767;BME280;64378;55.596;13.014;2023-03-26T06:55:58;99761.63;;;20.94;38.04
75767;BME280;64378;55.596;13.014;2023-03-26T06:58:24;99771.81;;;20.94;38.41
75767;BME280;64378;55.596;13.014;2023-03-26T07:00:52;99776.97;;;20.95;38.00
75767;BME280;64378;55.596;13.014;2023-03-26T07:03:18;99774.25;;;20.95;38.03
75767;BME280;64378;55.596;13.014;2023-03-26T07:05:43;99775.88;;;20.96;38.06
75767;BME280;64378;55.596;13.014;2023-03-26T07:08:08;99774.75;;;20.97;38.14
75767;BME280;64378;55.596;13.014;2023-03-26T07:10:34;99767.06;;;20.99;38.29
75767;BME280;64378;55.596;13.014;2023-03-26T07:12:59;99771.66;;;21.04;38.63
75767;BME280;64378;55.596;13.014;2023-03-26T07:15:27;99770.28;;;21.06;38.84
75767;BME280;64378;55.596;13.014;2023-03-26T07:17:52;99778.13;;;21.13;38.79
75767;BME280;64378;55.596;13.014;2023-03-26T07:20:18;99778.66;;;21.15;38.04
75767;BME280;64378;55.596;13.014;2023-03-26T07:22:43;99781.63;;;21.18;38.11
75767;BME280;64378;55.596;13.014;2023-03-26T07:25:10;99779.72;;;21.19;38.14
75767;BME280;64378;55.596;13.014;2023-03-26T07:30:16;99779.94;;;21.22;37.75
75767;BME280;64378;55.596;13.014;2023-03-26T07:32:58;99787.88;;;21.24;37.56
75767;BME280;64378;55.596;13.014;2023-03-26T07:35:40;99782.91;;;21.26;37.63
75767;BME280;64378;55.596;13.014;2023-03-26T07:46:13;99777.59;;;21.34;37.33
75767;BME280;64378;55.596;13.014;2023-03-26T07:48:41;99784.72;;;21.35;36.92
75767;BME280;64378;55.596;13.014;2023-03-26T07:51:07;99790.19;;;21.35;36.91
75767;BME280;64378;55.596;13.014;2023-03-26T07:53:34;99792.63;;;21.37;36.70
75767;BME280;64378;55.596;13.014;2023-03-26T07:56:32;99794.28;;;21.38;36.28
75767;BME280;64378;55.596;13.014;2023-03-26T08:08:02;99798.59;;;21.44;37.02
75767;BME280;64378;55.596;13.014;2023-03-26T08:10:41;99796.63;;;21.44;36.81
75767;BME280;64378;55.596;13.014;2023-03-26T08:13:22;99794.41;;;21.46;36.88
75767;BME280;64378;55.596;13.014;2023-03-26T08:15:59;99799.09;;;21.46;36.91
75767;BME280;64378;55.596;13.014;2023-03-26T08:21:04;99806.22;;;21.47;36.96
75767;BME280;64378;55.596;13.014;2023-03-26T08:23:41;99798.00;;;21.47;36.75
75767;BME280;64378;55.596;13.014;2023-03-26T08:29:10;99793.31;;;21.47;36.53
75767;BME280;64378;55.596;13.014;2023-03-26T08:31:41;99801.53;;;21.47;36.64
75767;BME280;64378;55.596;13.014;2023-03-26T08:34:11;99806.22;;;21.47;36.53
75767;BME280;64378;55.596;13.014;2023-03-26T08:36:37;99807.03;;;21.47;36.68
75767;BME280;64378;55.596;13.014;2023-03-26T08:39:03;99807.03;;;21.47;36.37
75767;BME280;64378;55.596;13.014;2023-03-26T08:56:12;99812.41;;;21.57;37.52
75767;BME280;64378;55.596;13.014;2023-03-26T08:59:07;99812.13;;;21.59;37.56
75767;BME280;64378;55.596;13.014;2023-03-26T09:18:50;99820.28;;;21.64;37.04
75767;BME280;64378;55.596;13.014;2023-03-26T09:27:31;99825.19;;;21.67;36.93
75767;BME280;64378;55.596;13.014;2023-03-26T09:38:41;99835.59;;;21.70;36.82
75767;BME280;64378;55.596;13.014;2023-03-26T09:41:15;99843.81;;;21.70;36.69
75767;BME280;64378;55.596;13.014;2023-03-26T09:43:59;99839.13;;;21.70;36.86
75767;BME280;64378;55.596;13.014;2023-03-26T09:49:47;99839.06;;;21.75;36.66
75767;BME280;64378;55.596;13.014;2023-03-26T10:00:48;99851.91;;;21.80;36.32
75767;BME280;64378;55.596;13.014;2023-03-26T10:03:36;99848.56;;;21.83;36.46
75767;BME280;64378;55.596;13.014;2023-03-26T10:09:42;99848.28;;;21.84;36.52
75767;BME280;64378;55.596;13.014;2023-03-26T10:17:51;99862.81;;;21.85;36.51
75767;BME280;64378;55.596;13.014;2023-03-26T10:20:35;99859.28;;;21.84;36.61
75767;BME280;64378;55.596;13.014;2023-03-26T10:23:13;99857.63;;;21.83;36.44
75767;BME280;64378;55.596;13.014;2023-03-26T10:42:58;99862.66;;;21.76;36.60
75767;BME280;64378;55.596;13.014;2023-03-26T10:45:35;99852.00;;;21.75;36.61
75767;BME280;64378;55.596;13.014;2023-03-26T10:53:48;99849.25;;;21.75;36.49
75767;BME280;64378;55.596;13.014;2023-03-26T10:56:27;99855.00;;;21.73;36.50
75767;BME280;64378;55.596;13.014;2023-03-26T10:58:54;99855.00;;;21.73;36.57
75767;BME280;64378;55.596;13.014;2023-03-26T11:01:44;99856.97;;;21.73;36.75
75767;BME280;64378;55.596;13.014;2023-03-26T11:10:00;99864.38;;;21.72;36.63
75767;BME280;64378;55.596;13.014;2023-03-26T11:15:26;99858.88;;;21.72;36.54
75767;BME280;64378;55.596;13.014;2023-03-26T11:30:54;99869.28;;;21.75;36.55
75767;BME280;64378;55.596;13.014;2023-03-26T11:33:34;99872.53;;;21.77;36.30
75767;BME280;64378;55.596;13.014;2023-03-26T11:36:06;99871.13;;;21.80;36.36
75767;BME280;64378;55.596;13.014;2023-03-26T11:38:38;99868.91;;;21.82;36.45
75767;BME280;64378;55.596;13.014;2023-03-26T11:41:23;99875.75;;;21.84;36.55
75767;BME280;64378;55.596;13.014;2023-03-26T11:46:37;99877.06;;;21.87;36.22
75767;BME280;64378;55.596;13.014;2023-03-26T11:49:08;99878.19;;;21.86;36.14
75767;BME280;64378;55.596;13.014;2023-03-26T11:51:37;99886.72;;;21.84;36.38
75767;BME280;64378;55.596;13.014;2023-03-26T11:54:05;99892.22;;;21.84;36.04
75767;BME280;64378;55.596;13.014;2023-03-26T11:56:48;99909.50;;;21.85;36.16
75767;BME280;64378;55.596;13.014;2023-03-26T11:59:18;99905.97;;;21.84;36.18
75767;BME280;64378;55.596;13.014;2023-03-26T12:04:36;99918.31;;;21.82;36.17
75767;BME280;64378;55.596;13.014;2023-03-26T12:07:22;99921.06;;;21.82;36.27
75767;BME280;64378;55.596;13.014;2023-03-26T12:09:57;99923.28;;;21.80;36.09
75767;BME280;64378;55.596;13.014;2023-03-26T12:12:30;99923.59;;;21.78;36.24
75767;BME280;64378;55.596;13.014;2023-03-26T12:14:58;99931.31;;;21.76;36.25
75767;BME280;64378;55.596;13.014;2023-03-26T12:17:29;99931.63;;;21.75;36.32
75767;BME280;64378;55.596;13.014;2023-03-26T12:19:56;99925.03;;;21.76;36.21
75767;BME280;64378;55.596;13.014;2023-03-26T12:22:40;99932.44;;;21.75;36.35
75767;BME280;64378;55.596;13.014;2023-03-26T12:25:18;99936.28;;;21.74;36.13
75767;BME280;64378;55.596;13.014;2023-03-26T12:30:39;99950.00;;;21.74;36.17
75767;BME280;64378;55.596;13.014;2023-03-26T12:33:13;99957.72;;;21.72;35.74
75767;BME280;64378;55.596;13.014;2023-03-26T12:35:41;99958.84;;;21.71;36.13
75767;BME280;64378;55.596;13.014;2023-03-26T12:40:48;99962.41;;;21.72;36.10
75767;BME280;64378;55.596;13.014;2023-03-26T12:43:35;99977.25;;;21.71;35.99
75767;BME280;64378;55.596;13.014;2023-03-26T12:46:02;99979.16;;;21.70;35.71
75767;BME280;64378;55.596;13.014;2023-03-26T12:48:28;99976.41;;;21.70;36.08
75767;BME280;64378;55.596;13.014;2023-03-26T13:15:46;100014.44;;;21.01;37.12
75767;BME280;64378;55.596;13.014;2023-03-26T13:23:48;100026.84;;;21.22;37.17
75767;BME280;64378;55.596;13.014;2023-03-26T13:31:40;100027.56;;;21.33;37.19
75767;BME280;64378;55.596;13.014;2023-03-26T13:37:46;100031.91;;;21.39;37.21
75767;BME280;64378;55.596;13.014;2023-03-26T13:40:26;100027.75;;;21.41;36.93
75767;BME280;64378;55.596;13.014;2023-03-26T13:43:18;100039.81;;;21.45;36.94
75767;BME280;64378;55.596;13.014;2023-03-26T13:48:19;100035.94;;;21.46;37.27
75767;BME280;64378;55.596;13.014;2023-03-26T13:50:55;100034.84;;;21.47;36.98
75767;BME280;64378;55.596;13.014;2023-03-26T13:53:38;100039.22;;;21.48;36.51
75767;BME280;64378;55.596;13.014;2023-03-26T13:56:09;100047.47;;;21.48;36.64
75767;BME280;64378;55.596;13.014;2023-03-26T13:58:59;100056.22;;;21.50;36.60
75767;BME280;64378;55.596;13.014;2023-03-26T14:01:30;100058.97;;;21.50;36.86
75767;BME280;64378;55.596;13.014;2023-03-26T14:04:26;100057.34;;;21.49;36.34
75767;BME280;64378;55.596;13.014;2023-03-26T14:07:27;100052.69;;;21.50;36.21
75767;BME280;64378;55.596;13.014;2023-03-26T14:10:00;100067.22;;;21.50;36.28
75767;BME280;64378;55.596;13.014;2023-03-26T14:12:44;100067.50;;;21.49;36.22
75767;BME280;64378;55.596;13.014;2023-03-26T14:18:36;100069.16;;;21.50;36.34
75767;BME280;64378;55.596;13.014;2023-03-26T14:24:07;100077.09;;;21.51;36.21
75767;BME280;64378;55.596;13.014;2023-03-26T14:29:47;100070.50;;;21.52;35.93
75767;BME280;64378;55.596;13.014;2023-03-26T14:35:05;100080.34;;;21.53;35.76
75767;BME280;64378;55.596;13.014;2023-03-26T14:42:57;100091.88;;;21.55;35.87
75767;BME280;64378;55.596;13.014;2023-03-26T14:45:48;100090.75;;;21.56;35.70
75767;BME280;64378;55.596;13.014;2023-03-26T14:51:48;100093.22;;;21.58;35.75
75767;BME280;64378;55.596;13.014;2023-03-26T14:54:18;100097.91;;;21.57;35.68
75767;BME280;64378;55.596;13.014;2023-03-26T15:10:48;100134.38;;;21.58;35.59
75767;BME280;64378;55.596;13.014;2023-03-26T15:41:20;100169.72;;;21.69;46.28
75767;BME280;64378;55.596;13.014;2023-03-26T15:54:56;100155.16;;;21.74;44.98
75767;BME280;64378;55.596;13.014;2023-03-26T15:57:36;100161.44;;;21.74;44.65
75767;BME280;64378;55.596;13.014;2023-03-26T16:08:21;100174.91;;;21.76;44.04
75767;BME280;64378;55.596;13.014;2023-03-26T16:10:59;100176.81;;;21.75;43.61
75767;BME280;64378;55.596;13.014;2023-03-26T16:13:48;100189.75;;;21.75;43.29
75767;BME280;64378;55.596;13.014;2023-03-26T16:18:45;100188.13;;;21.74;42.97
75767;BME280;64378;55.596;13.014;2023-03-26T16:23:56;100191.41;;;21.76;42.60
75767;BME280;64378;55.596;13.014;2023-03-26T16:26:39;100198.78;;;21.75;42.24
75767;BME280;64378;55.596;13.014;2023-03-26T16:29:22;100200.75;;;21.75;42.00
75767;BME280;64378;55.596;13.014;2023-03-26T16:34:41;100193.88;;;21.72;41.16
75767;BME280;64378;55.596;13.014;2023-03-26T16:54:17;100202.69;;;21.69;39.97
75767;BME280;64378;55.596;13.014;2023-03-26T16:57:07;100202.69;;;21.69;39.91
75767;BME280;64378;55.596;13.014;2023-03-26T17:00:04;100197.50;;;21.68;39.81
75767;BME280;64378;55.596;13.014;2023-03-26T17:08:13;100211.22;;;21.68;40.00
75767;BME280;64378;55.596;13.014;2023-03-26T17:11:00;100215.59;;;21.69;40.01
75767;BME280;64378;55.596;13.014;2023-03-26T17:16:22;100222.22;;;21.68;40.25
75767;BME280;64378;55.596;13.014;2023-03-26T17:19:10;100237.56;;;21.69;40.41
75767;BME280;64378;55.596;13.014;2023-03-26T17:22:00;100238.69;;;21.68;40.08
75767;BME280;64378;55.596;13.014;2023-03-26T17:24:50;100235.09;;;21.67;40.03
75767;BME280;64378;55.596;13.014;2023-03-26T17:33:11;100237.03;;;21.67;40.20
75767;BME280;64378;55.596;13.014;2023-03-26T17:35:46;100247.72;;;21.68;40.24
75767;BME280;64378;55.596;13.014;2023-03-26T17:40:54;100259.53;;;21.69;40.41
75767;BME280;64378;55.596;13.014;2023-03-26T17:43:47;100259.53;;;21.69;40.37
75767;BME280;64378;55.596;13.014;2023-03-26T17:48:51;100274.06;;;21.69;40.11
75767;BME280;64378;55.596;13.014;2023-03-26T17:51:39;100270.22;;;21.70;40.24
75767;BME280;64378;55.596;13.014;2023-03-26T17:54:17;100273.81;;;21.71;40.12
75767;BME280;64378;55.596;13.014;2023-03-26T17:56:45;100269.13;;;21.71;40.28
75767;BME280;64378;55.596;13.014;2023-03-26T17:59:23;100274.63;;;21.71;40.38
75767;BME280;64378;55.596;13.014;2023-03-26T18:01:52;100278.19;;;21.72;40.27
75767;BME280;64378;55.596;13.014;2023-03-26T18:04:25;100282.84;;;21.71;39.95
75767;BME280;64378;55.596;13.014;2023-03-26T18:07:11;100288.06;;;21.73;40.12
75767;BME280;64378;55.596;13.014;2023-03-26T18:12:56;100291.09;;;21.71;39.95
75767;BME280;64378;55.596;13.014;2023-03-26T18:18:35;100301.28;;;21.71;39.91
75767;BME280;64378;55.596;13.014;2023-03-26T18:21:03;100291.94;;;21.72;39.56
75767;BME280;64378;55.596;13.014;2023-03-26T18:23:36;100292.72;;;21.72;39.94
75767;BME280;64378;55.596;13.014;2023-03-26T18:26:20;100296.59;;;21.71;39.58
75767;BME280;64378;55.596;13.014;2023-03-26T18:29:14;100299.31;;;21.71;39.56
75767;BME280;64378;55.596;13.014;2023-03-26T18:31:42;100300.16;;;21.72;39.33
75767;BME280;64378;55.596;13.014;2023-03-26T18:34:14;100299.88;;;21.73;39.53
75767;BME280;64378;55.596;13.014;2023-03-26T18:36:42;100298.22;;;21.72;39.25
75767;BME280;64378;55.596;13.014;2023-03-26T18:39:12;100288.34;;;21.71;38.92
75767;BME280;64378;55.596;13.014;2023-03-26T18:41:39;100297.97;;;21.74;39.27